Weather at Caravelas Airport

Public forecast

Using degrees Celsius for public forecast. Weather courtesy of forecast.io.

Closest aviation weather report (METAR) to Caravelas Airport

Closest report is Porto Seguro Airport, 73.6 nm (136.2 km) N.

2024/06/22 23:00 (retrieved 30 minutes ago)

SBPS 222300Z 25003KT 9999 FEW025 SCT080 22/21 Q1018

Closest aviation forecast (TAF) to Caravelas Airport

Closest forecast is Porto Seguro Airport, 73.6 nm (136.2 km) N.

2024/06/22 18:00 (retrieved 6 hours ago)

TAF SBPS 221619Z 2218/2318 09008KT 8000 SCT020 TN21/2309Z TX26/2318Z BECMG 2222/2301 24005KT TEMPO 2301/2313 17005KT 4000 RA BR BKN005 BKN015 BECMG 2313/2315 07010KT RMK PHC